KEFT

Monroe Municipal Airport

Monroe, Wisconsin, USA
METAR KEFT 192015Z AUTO 22016G27KT 10SM OVC018 12/08 A2980 RMK AO2 T01160076
Observed Flight Rules
Oct-19 @ 20:15 UTC (28 minutes ago) Marginal Visual Flight Rules
Wind Visibility Clouds
220° at 16 knots
 Gusting to 27 knots
10 miles
  • Overcast at 1,800' AGL
Temperatures Readings
Current 12°C / 54°F
Dewpoint 8°C / 46°F
Humidity 77%
Altimeter 29.8" Hg
Pressure 1009 hPa
Elevation 331
METAR KEFT 192015Z AUTO 22016G27KT 10SM OVC018 12/08 A2980 RMK AO2 T01160076
Observed Flight Rules
Oct-19 @ 20:15 UTC
(28 minutes ago)
MVFR
Wind Visibility
220° at 16 knots
 Gusting to 27 knots
10 miles
Clouds
  • Overcast at 1,800' AGL
Temperature Dewpoint
12°C / 54°F 8°C / 46°F
Humidity Altimeter Pressure
77% 29.8" Hg 1009 hPa